Time;durP1;ratioP1;P1;durP2;ratioP2;P2;SDS_P1;SDS_P2;PMS_P1;PMS_P2;Temp;Humidity;BMP_temperature;BMP_pressure;BME280_temperature;BME280_humidity;BME280_pressure;Samples;Min_cycle;Max_cycle;Signal;HPM_P1;HPM_P2
2023/11/23 02:25:40;;;;;;;;;;;;;;;;;;;;;
2023/11/23 02:46:47;;;;;;;31.98;3.80;;;9.60;99.90;;;;;;3935198;30;20194;-96
2023/11/23 05:08:59;;;;;;;10.38;3.83;;;9.40;99.90;;;;;;3980529;29;20615;-96
2023/11/23 05:21:29;;;;;;;7.80;3.20;;;9.50;99.90;;;;;;4036761;24;20268;-94
2023/11/23 05:25:01;;;;;;;;;;;;;;;;;;;;;
2023/11/23 05:27:37;;;;;;;;;;;;;;;;;;;;;
2023/11/23 05:30:21;;;;;;;;;;;;;;;;;;;;;
2023/11/23 05:33:15;;;;;;;5.90;2.67;;;9.20;99.90;;;;;;3963993;29;20216;-95
2023/11/23 05:40:16;;;;;;;;;;;;;;;;;;;;;
2023/11/23 05:42:50;;;;;;;;;;;;;;;;;;;;;
2023/11/23 05:49:21;;;;;;;;;;;;;;;;;;;;;
2023/11/23 05:55:58;;;;;;;7.70;3.17;;;9.50;99.90;;;;;;3932356;30;20194;-94
2023/11/23 06:09:45;;;;;;;;;;;;;;;;;;;;;
2023/11/23 06:12:20;;;;;;;7.18;2.70;;;9.80;99.90;;;;;;3909565;30;20236;-93
2023/11/23 06:15:02;;;;;;;;;;;;;;;;;;;;;
2023/11/23 06:17:48;;;;;;;5.38;3.28;;;9.90;99.90;;;;;;3948864;29;20668;-94
2023/11/23 06:23:54;;;;;;;4.38;2.78;;;10.10;99.90;;;;;;3949990;29;20225;-94
2023/11/23 06:26:20;;;;;;;8.02;2.85;;;10.10;99.90;;;;;;3949991;30;20182;-95
2023/11/23 06:31:31;;;;;;;17.10;3.90;;;10.10;99.90;;;;;;3961089;29;20647;-94
2023/11/23 06:33:37;;;;;;;7.00;2.70;;;10.10;99.90;;;;;;3964261;29;20220;-95
2023/11/23 06:36:40;;;;;;;5.38;2.47;;;10.10;99.90;;;;;;3964632;29;20271;-94
2023/11/23 06:39:11;;;;;;;5.15;2.42;;;10.20;99.90;;;;;;3962309;29;20221;-95
2023/11/23 06:41:49;;;;;;;8.95;4.20;;;10.10;99.90;;;;;;3949458;29;20214;-94
2023/11/23 06:44:58;;;;;;;;;;;;;;;;;;;;;
2023/11/23 06:48:19;;;;;;;12.07;3.20;;;10.00;99.90;;;;;;3961225;29;20250;-95
2023/11/23 06:54:12;;;;;;;;;;;;;;;;;;;;;
2023/11/23 06:56:30;;;;;;;9.60;2.70;;;10.10;99.90;;;;;;3964449;29;20209;-96
2023/11/23 06:58:49;;;;;;;11.20;5.28;;;10.00;99.90;;;;;;3963975;29;20203;-94
2023/11/23 07:04:47;;;;;;;;;;;;;;;;;;;;;
2023/11/23 07:07:47;;;;;;;;;;;;;;;;;;;;;
2023/11/23 07:10:59;;;;;;;9.20;3.63;;;10.10;99.90;;;;;;3965865;29;20236;-93
2023/11/23 07:16:57;;;;;;;23.98;3.40;;;10.20;99.90;;;;;;3971477;29;20238;-94
2023/11/23 07:19:55;;;;;;;3.78;2.10;;;10.10;99.90;;;;;;3957727;29;20292;-95
2023/11/23 07:29:21;;;;;;;4.65;2.47;;;10.30;99.90;;;;;;3943632;29;20268;-94
2023/11/23 07:31:41;;;;;;;4.00;2.20;;;10.30;99.90;;;;;;3964126;30;20199;-94
2023/11/23 07:33:59;;;;;;;6.68;2.42;;;10.40;99.90;;;;;;3949455;29;20236;-94
2023/11/23 07:36:21;;;;;;;;;;;;;;;;;;;;;
2023/11/23 07:41:20;;;;;;;7.45;2.45;;;10.50;99.90;;;;;;3957416;29;20270;-94
2023/11/23 07:43:34;;;;;;;11.63;1.95;;;10.50;99.90;;;;;;3948370;30;20224;-94
2023/11/23 07:46:39;;;;;;;4.05;2.08;;;10.50;99.90;;;;;;3963294;29;20185;-94
2023/11/23 07:49:09;;;;;;;4.15;2.22;;;10.60;99.90;;;;;;3943326;30;20225;-93
2023/11/23 07:51:16;;;;;;;7.95;2.17;;;10.50;99.90;;;;;;3948498;29;20178;-94
2023/11/23 07:53:51;;;;;;;3.88;1.58;;;10.60;99.90;;;;;;3949606;29;20214;-93
2023/11/23 07:56:31;;;;;;;4.18;1.65;;;10.60;99.90;;;;;;3948259;29;20218;-93
2023/11/23 07:59:01;;;;;;;6.80;2.97;;;10.70;99.90;;;;;;3948377;30;20201;-93
2023/11/23 08:01:07;;;;;;;4.15;2.50;;;10.60;99.90;;;;;;3962851;29;20195;-93
2023/11/23 08:03:19;;;;;;;7.07;1.98;;;10.70;99.90;;;;;;3963127;29;20204;-93
2023/11/23 08:06:36;;;;;;;3.50;1.80;;;10.70;99.90;;;;;;3962886;29;20702;-94
2023/11/23 08:09:15;;;;;;;3.22;1.38;;;10.70;99.90;;;;;;3948969;30;20212;-94
2023/11/23 08:11:56;;;;;;;10.13;2.08;;;10.70;99.90;;;;;;3950828;29;20280;-93
2023/11/23 08:18:27;;;;;;;12.45;2.67;;;11.00;99.90;;;;;;3950242;29;20621;-95
2023/11/23 08:21:16;;;;;;;18.00;9.15;;;10.90;99.90;;;;;;3959829;29;20255;-94
2023/11/23 08:27:02;;;;;;;4.68;1.55;;;11.00;99.90;;;;;;3956601;29;20282;-95
2023/11/23 08:29:49;;;;;;;;;;;;;;;;;;;;;
2023/11/23 08:32:59;;;;;;;4.18;2.03;;;11.20;99.90;;;;;;3949522;29;20228;-95
2023/11/23 08:35:40;;;;;;;3.85;1.60;;;11.20;99.90;;;;;;3969050;29;20190;-94
2023/11/23 08:38:13;;;;;;;;;;;;;;;;;;;;;
2023/11/23 08:40:44;;;;;;;5.22;1.90;;;11.20;99.90;;;;;;3956545;29;20190;-94
2023/11/23 08:43:47;;;;;;;5.13;2.38;;;11.10;99.90;;;;;;3959905;29;20223;-94
2023/11/23 08:46:03;;;;;;;;;;;;;;;;;;;;;
2023/11/23 08:54:34;;;;;;;2.03;1.33;;;10.90;99.90;;;;;;3961388;29;20236;-95
2023/11/23 08:56:57;;;;;;;7.55;1.70;;;10.90;99.90;;;;;;3962029;29;20188;-94
2023/11/23 08:59:44;;;;;;;;;;;;;;;;;;;;;
2023/11/23 09:02:00;;;;;;;6.50;1.63;;;11.00;99.90;;;;;;3961886;29;20192;-94
2023/11/23 09:04:49;;;;;;;;;;;;;;;;;;;;;
2023/11/23 11:17:17;;;;;;;;;;;;;;;;;;;;;
